sensor_id;sensor_type;location;lat;lon;timestamp;P1;durP1;ratioP1;P2;durP2;ratioP2
17524;SDS011;40431;52.198;9.902;2023-11-21T00:00:38;17.40;;;14.43;;
17524;SDS011;40431;52.198;9.902;2023-11-21T00:03:04;19.83;;;15.33;;
17524;SDS011;40431;52.198;9.902;2023-11-21T00:05:33;17.43;;;15.43;;
17524;SDS011;40431;52.198;9.902;2023-11-21T00:08:00;17.17;;;15.50;;
17524;SDS011;40431;52.198;9.902;2023-11-21T00:10:26;17.20;;;15.57;;
17524;SDS011;40431;52.198;9.902;2023-11-21T00:12:53;23.63;;;16.03;;
17524;SDS011;40431;52.198;9.902;2023-11-21T00:15:20;19.23;;;16.43;;
17524;SDS011;40431;52.198;9.902;2023-11-21T00:17:47;29.00;;;17.07;;
17524;SDS011;40431;52.198;9.902;2023-11-21T00:20:13;16.93;;;15.17;;
17524;SDS011;40431;52.198;9.902;2023-11-21T00:22:41;31.17;;;15.87;;
17524;SDS011;40431;52.198;9.902;2023-11-21T00:25:08;21.97;;;16.87;;
17524;SDS011;40431;52.198;9.902;2023-11-21T00:27:35;19.73;;;16.33;;
17524;SDS011;40431;52.198;9.902;2023-11-21T00:30:01;22.87;;;16.73;;
17524;SDS011;40431;52.198;9.902;2023-11-21T00:32:30;24.20;;;16.90;;
17524;SDS011;40431;52.198;9.902;2023-11-21T00:34:56;25.67;;;16.60;;
17524;SDS011;40431;52.198;9.902;2023-11-21T00:37:24;20.27;;;16.37;;
17524;SDS011;40431;52.198;9.902;2023-11-21T00:39:52;18.27;;;16.07;;
17524;SDS011;40431;52.198;9.902;2023-11-21T00:42:18;20.80;;;16.47;;
17524;SDS011;40431;52.198;9.902;2023-11-21T00:44:46;17.83;;;16.03;;
17524;SDS011;40431;52.198;9.902;2023-11-21T00:47:13;19.07;;;16.40;;
17524;SDS011;40431;52.198;9.902;2023-11-21T00:49:39;23.73;;;16.40;;
17524;SDS011;40431;52.198;9.902;2023-11-21T00:52:06;27.90;;;16.67;;
17524;SDS011;40431;52.198;9.902;2023-11-21T00:54:33;19.90;;;17.73;;
17524;SDS011;40431;52.198;9.902;2023-11-21T00:57:01;18.63;;;16.70;;
17524;SDS011;40431;52.198;9.902;2023-11-21T00:59:28;22.80;;;16.97;;
17524;SDS011;40431;52.198;9.902;2023-11-21T01:01:55;19.80;;;16.77;;
17524;SDS011;40431;52.198;9.902;2023-11-21T01:04:25;20.90;;;16.67;;
17524;SDS011;40431;52.198;9.902;2023-11-21T01:06:51;20.33;;;17.23;;
17524;SDS011;40431;52.198;9.902;2023-11-21T01:09:18;20.83;;;16.53;;
17524;SDS011;40431;52.198;9.902;2023-11-21T01:11:44;24.23;;;17.13;;
17524;SDS011;40431;52.198;9.902;2023-11-21T01:14:12;19.80;;;17.00;;
17524;SDS011;40431;52.198;9.902;2023-11-21T01:16:39;23.83;;;17.67;;
17524;SDS011;40431;52.198;9.902;2023-11-21T01:19:06;27.27;;;17.87;;
17524;SDS011;40431;52.198;9.902;2023-11-21T01:21:32;25.50;;;17.30;;
17524;SDS011;40431;52.198;9.902;2023-11-21T01:23:59;21.70;;;16.40;;
17524;SDS011;40431;52.198;9.902;2023-11-21T01:26:25;20.33;;;17.50;;
17524;SDS011;40431;52.198;9.902;2023-11-21T01:28:52;18.07;;;16.23;;
17524;SDS011;40431;52.198;9.902;2023-11-21T01:31:20;20.50;;;15.97;;
17524;SDS011;40431;52.198;9.902;2023-11-21T01:33:47;24.77;;;17.47;;
17524;SDS011;40431;52.198;9.902;2023-11-21T01:36:13;19.60;;;16.50;;
17524;SDS011;40431;52.198;9.902;2023-11-21T01:38:40;21.27;;;16.53;;
17524;SDS011;40431;52.198;9.902;2023-11-21T01:41:07;22.57;;;16.53;;
17524;SDS011;40431;52.198;9.902;2023-11-21T01:43:33;19.53;;;17.53;;
17524;SDS011;40431;52.198;9.902;2023-11-21T01:46:00;21.57;;;16.13;;
17524;SDS011;40431;52.198;9.902;2023-11-21T01:48:28;22.50;;;17.57;;
17524;SDS011;40431;52.198;9.902;2023-11-21T01:50:54;25.67;;;16.47;;
17524;SDS011;40431;52.198;9.902;2023-11-21T01:53:21;24.30;;;17.87;;
17524;SDS011;40431;52.198;9.902;2023-11-21T01:55:50;27.73;;;18.27;;
17524;SDS011;40431;52.198;9.902;2023-11-21T01:58:17;24.37;;;18.07;;
17524;SDS011;40431;52.198;9.902;2023-11-21T02:00:44;33.07;;;18.77;;
17524;SDS011;40431;52.198;9.902;2023-11-21T02:03:10;26.93;;;18.70;;
17524;SDS011;40431;52.198;9.902;2023-11-21T02:05:38;19.83;;;17.37;;
17524;SDS011;40431;52.198;9.902;2023-11-21T02:08:05;21.27;;;17.53;;
17524;SDS011;40431;52.198;9.902;2023-11-21T02:10:34;19.90;;;17.80;;
17524;SDS011;40431;52.198;9.902;2023-11-21T02:13:02;24.83;;;18.03;;
17524;SDS011;40431;52.198;9.902;2023-11-21T02:15:29;23.53;;;17.80;;
17524;SDS011;40431;52.198;9.902;2023-11-21T02:17:55;28.53;;;19.60;;
17524;SDS011;40431;52.198;9.902;2023-11-21T02:20:23;25.97;;;19.07;;
17524;SDS011;40431;52.198;9.902;2023-11-21T02:22:52;22.87;;;19.03;;
17524;SDS011;40431;52.198;9.902;2023-11-21T02:25:22;25.10;;;17.83;;
17524;SDS011;40431;52.198;9.902;2023-11-21T02:27:49;35.40;;;19.47;;
17524;SDS011;40431;52.198;9.902;2023-11-21T02:30:16;25.00;;;18.83;;
17524;SDS011;40431;52.198;9.902;2023-11-21T02:32:43;26.03;;;18.93;;
17524;SDS011;40431;52.198;9.902;2023-11-21T02:35:11;26.97;;;18.50;;
17524;SDS011;40431;52.198;9.902;2023-11-21T02:37:38;31.23;;;19.40;;
17524;SDS011;40431;52.198;9.902;2023-11-21T02:40:08;29.50;;;19.70;;
17524;SDS011;40431;52.198;9.902;2023-11-21T02:42:37;27.27;;;19.20;;
17524;SDS011;40431;52.198;9.902;2023-11-21T02:45:04;24.83;;;20.23;;
17524;SDS011;40431;52.198;9.902;2023-11-21T02:47:32;31.93;;;19.97;;
17524;SDS011;40431;52.198;9.902;2023-11-21T02:49:58;23.67;;;18.20;;
17524;SDS011;40431;52.198;9.902;2023-11-21T02:52:25;36.33;;;19.37;;
17524;SDS011;40431;52.198;9.902;2023-11-21T02:54:52;28.43;;;19.40;;
17524;SDS011;40431;52.198;9.902;2023-11-21T02:57:20;28.90;;;19.57;;
17524;SDS011;40431;52.198;9.902;2023-11-21T02:59:46;29.50;;;20.33;;
17524;SDS011;40431;52.198;9.902;2023-11-21T03:02:12;29.70;;;20.43;;
17524;SDS011;40431;52.198;9.902;2023-11-21T03:04:40;26.80;;;18.70;;
17524;SDS011;40431;52.198;9.902;2023-11-21T03:07:07;24.83;;;20.03;;
17524;SDS011;40431;52.198;9.902;2023-11-21T03:09:34;28.53;;;20.03;;
17524;SDS011;40431;52.198;9.902;2023-11-21T03:12:00;28.70;;;21.00;;
17524;SDS011;40431;52.198;9.902;2023-11-21T03:14:28;31.33;;;21.80;;
17524;SDS011;40431;52.198;9.902;2023-11-21T03:16:55;38.00;;;21.93;;
17524;SDS011;40431;52.198;9.902;2023-11-21T03:19:21;27.60;;;22.03;;
17524;SDS011;40431;52.198;9.902;2023-11-21T03:21:48;31.30;;;22.27;;
17524;SDS011;40431;52.198;9.902;2023-11-21T03:24:14;37.13;;;22.17;;
17524;SDS011;40431;52.198;9.902;2023-11-21T03:26:44;27.57;;;21.90;;
17524;SDS011;40431;52.198;9.902;2023-11-21T03:29:10;29.87;;;22.50;;
17524;SDS011;40431;52.198;9.902;2023-11-21T03:31:38;33.73;;;24.30;;
17524;SDS011;40431;52.198;9.902;2023-11-21T03:34:04;44.37;;;23.97;;
17524;SDS011;40431;52.198;9.902;2023-11-21T03:36:31;29.97;;;23.07;;
17524;SDS011;40431;52.198;9.902;2023-11-21T03:38:57;34.30;;;22.70;;
17524;SDS011;40431;52.198;9.902;2023-11-21T03:41:24;35.87;;;25.70;;
17524;SDS011;40431;52.198;9.902;2023-11-21T03:43:50;38.90;;;24.67;;
17524;SDS011;40431;52.198;9.902;2023-11-21T03:46:17;41.60;;;23.80;;
17524;SDS011;40431;52.198;9.902;2023-11-21T03:48:44;37.30;;;24.03;;
17524;SDS011;40431;52.198;9.902;2023-11-21T03:51:11;37.80;;;24.13;;
17524;SDS011;40431;52.198;9.902;2023-11-21T03:53:37;35.13;;;25.40;;
17524;SDS011;40431;52.198;9.902;2023-11-21T03:56:04;40.10;;;24.37;;
17524;SDS011;40431;52.198;9.902;2023-11-21T03:58:31;42.57;;;24.40;;
17524;SDS011;40431;52.198;9.902;2023-11-21T04:00:57;38.37;;;22.87;;
17524;SDS011;40431;52.198;9.902;2023-11-21T04:03:24;40.13;;;24.93;;
17524;SDS011;40431;52.198;9.902;2023-11-21T04:05:52;37.37;;;24.87;;
17524;SDS011;40431;52.198;9.902;2023-11-21T04:08:18;34.27;;;23.40;;
17524;SDS011;40431;52.198;9.902;2023-11-21T04:10:44;37.70;;;23.33;;
17524;SDS011;40431;52.198;9.902;2023-11-21T04:13:11;39.53;;;24.93;;
17524;SDS011;40431;52.198;9.902;2023-11-21T04:15:37;34.77;;;23.03;;
17524;SDS011;40431;52.198;9.902;2023-11-21T04:18:04;31.17;;;23.27;;
17524;SDS011;40431;52.198;9.902;2023-11-21T04:20:31;37.77;;;25.03;;
17524;SDS011;40431;52.198;9.902;2023-11-21T04:22:58;32.77;;;23.80;;
17524;SDS011;40431;52.198;9.902;2023-11-21T04:25:25;34.97;;;24.37;;
17524;SDS011;40431;52.198;9.902;2023-11-21T04:27:52;32.20;;;22.83;;
17524;SDS011;40431;52.198;9.902;2023-11-21T04:30:19;36.50;;;23.27;;
17524;SDS011;40431;52.198;9.902;2023-11-21T04:32:45;36.73;;;22.47;;
17524;SDS011;40431;52.198;9.902;2023-11-21T04:35:12;32.47;;;22.97;;
17524;SDS011;40431;52.198;9.902;2023-11-21T04:37:40;44.50;;;25.73;;
17524;SDS011;40431;52.198;9.902;2023-11-21T04:40:08;35.77;;;23.37;;
17524;SDS011;40431;52.198;9.902;2023-11-21T04:42:35;40.20;;;23.00;;
17524;SDS011;40431;52.198;9.902;2023-11-21T04:45:02;39.23;;;24.10;;
17524;SDS011;40431;52.198;9.902;2023-11-21T04:47:32;38.70;;;24.60;;
17524;SDS011;40431;52.198;9.902;2023-11-21T04:49:59;41.60;;;24.97;;
17524;SDS011;40431;52.198;9.902;2023-11-21T04:52:25;45.33;;;26.50;;
17524;SDS011;40431;52.198;9.902;2023-11-21T04:54:51;39.00;;;25.90;;
17524;SDS011;40431;52.198;9.902;2023-11-21T04:57:20;44.17;;;24.87;;
17524;SDS011;40431;52.198;9.902;2023-11-21T04:59:47;39.43;;;25.70;;
17524;SDS011;40431;52.198;9.902;2023-11-21T05:02:14;38.73;;;24.93;;
17524;SDS011;40431;52.198;9.902;2023-11-21T05:04:40;34.73;;;24.67;;
17524;SDS011;40431;52.198;9.902;2023-11-21T05:07:07;31.60;;;25.03;;
17524;SDS011;40431;52.198;9.902;2023-11-21T05:09:34;37.27;;;24.13;;
17524;SDS011;40431;52.198;9.902;2023-11-21T05:12:03;42.40;;;25.13;;
17524;SDS011;40431;52.198;9.902;2023-11-21T05:14:30;42.93;;;25.43;;
17524;SDS011;40431;52.198;9.902;2023-11-21T05:16:57;50.27;;;26.27;;
17524;SDS011;40431;52.198;9.902;2023-11-21T05:19:24;46.80;;;26.27;;
17524;SDS011;40431;52.198;9.902;2023-11-21T05:21:52;41.97;;;25.73;;
17524;SDS011;40431;52.198;9.902;2023-11-21T05:24:18;50.83;;;26.00;;
17524;SDS011;40431;52.198;9.902;2023-11-21T05:26:44;52.83;;;27.60;;
17524;SDS011;40431;52.198;9.902;2023-11-21T05:29:11;48.77;;;27.67;;
17524;SDS011;40431;52.198;9.902;2023-11-21T05:31:39;50.83;;;26.87;;
17524;SDS011;40431;52.198;9.902;2023-11-21T05:34:05;41.97;;;26.37;;
17524;SDS011;40431;52.198;9.902;2023-11-21T05:36:32;45.17;;;26.20;;
17524;SDS011;40431;52.198;9.902;2023-11-21T05:38:58;47.97;;;26.03;;
17524;SDS011;40431;52.198;9.902;2023-11-21T05:41:25;48.97;;;27.17;;
17524;SDS011;40431;52.198;9.902;2023-11-21T05:43:51;47.57;;;27.80;;
17524;SDS011;40431;52.198;9.902;2023-11-21T05:46:19;49.87;;;26.97;;
17524;SDS011;40431;52.198;9.902;2023-11-21T05:48:47;55.83;;;27.97;;
17524;SDS011;40431;52.198;9.902;2023-11-21T05:51:13;53.30;;;28.20;;
17524;SDS011;40431;52.198;9.902;2023-11-21T05:53:40;48.87;;;27.27;;
17524;SDS011;40431;52.198;9.902;2023-11-21T05:56:06;48.03;;;28.23;;
17524;SDS011;40431;52.198;9.902;2023-11-21T05:58:33;56.13;;;29.00;;
17524;SDS011;40431;52.198;9.902;2023-11-21T06:01:00;50.67;;;28.80;;
17524;SDS011;40431;52.198;9.902;2023-11-21T06:03:26;57.90;;;29.77;;
17524;SDS011;40431;52.198;9.902;2023-11-21T06:05:54;52.90;;;29.20;;
17524;SDS011;40431;52.198;9.902;2023-11-21T06:08:20;62.77;;;30.23;;
17524;SDS011;40431;52.198;9.902;2023-11-21T06:10:47;57.90;;;30.10;;
17524;SDS011;40431;52.198;9.902;2023-11-21T06:13:14;56.67;;;29.80;;
17524;SDS011;40431;52.198;9.902;2023-11-21T06:15:40;60.03;;;29.70;;
17524;SDS011;40431;52.198;9.902;2023-11-21T06:18:07;65.30;;;30.50;;
17524;SDS011;40431;52.198;9.902;2023-11-21T06:20:35;62.67;;;31.43;;
17524;SDS011;40431;52.198;9.902;2023-11-21T06:23:03;64.80;;;30.43;;
17524;SDS011;40431;52.198;9.902;2023-11-21T06:25:30;59.20;;;29.77;;
17524;SDS011;40431;52.198;9.902;2023-11-21T06:27:58;60.93;;;30.13;;
17524;SDS011;40431;52.198;9.902;2023-11-21T06:30:25;67.33;;;31.27;;
17524;SDS011;40431;52.198;9.902;2023-11-21T06:32:51;59.20;;;29.90;;
17524;SDS011;40431;52.198;9.902;2023-11-21T06:35:18;68.67;;;29.97;;
17524;SDS011;40431;52.198;9.902;2023-11-21T06:37:45;57.93;;;29.43;;
17524;SDS011;40431;52.198;9.902;2023-11-21T06:40:14;58.73;;;30.10;;
17524;SDS011;40431;52.198;9.902;2023-11-21T06:42:41;63.13;;;31.87;;
17524;SDS011;40431;52.198;9.902;2023-11-21T06:45:09;59.10;;;29.97;;
17524;SDS011;40431;52.198;9.902;2023-11-21T06:47:36;53.43;;;28.43;;
17524;SDS011;40431;52.198;9.902;2023-11-21T06:50:03;57.10;;;28.80;;
17524;SDS011;40431;52.198;9.902;2023-11-21T06:52:30;57.73;;;29.33;;
17524;SDS011;40431;52.198;9.902;2023-11-21T06:54:56;58.50;;;29.10;;
17524;SDS011;40431;52.198;9.902;2023-11-21T06:57:24;55.97;;;29.63;;
17524;SDS011;40431;52.198;9.902;2023-11-21T06:59:50;53.43;;;27.67;;
17524;SDS011;40431;52.198;9.902;2023-11-21T07:02:17;53.13;;;27.17;;
17524;SDS011;40431;52.198;9.902;2023-11-21T07:04:44;51.53;;;27.33;;
17524;SDS011;40431;52.198;9.902;2023-11-21T07:07:11;56.70;;;27.90;;
17524;SDS011;40431;52.198;9.902;2023-11-21T07:09:37;59.67;;;30.50;;
17524;SDS011;40431;52.198;9.902;2023-11-21T07:12:04;54.63;;;28.67;;
17524;SDS011;40431;52.198;9.902;2023-11-21T07:14:34;50.57;;;27.40;;
17524;SDS011;40431;52.198;9.902;2023-11-21T07:17:00;54.47;;;29.10;;
17524;SDS011;40431;52.198;9.902;2023-11-21T07:19:27;53.53;;;28.60;;
17524;SDS011;40431;52.198;9.902;2023-11-21T07:21:54;59.73;;;29.70;;
17524;SDS011;40431;52.198;9.902;2023-11-21T07:24:20;54.93;;;28.27;;
17524;SDS011;40431;52.198;9.902;2023-11-21T07:26:47;54.47;;;27.40;;
17524;SDS011;40431;52.198;9.902;2023-11-21T07:29:14;51.90;;;28.63;;
17524;SDS011;40431;52.198;9.902;2023-11-21T07:31:42;41.17;;;23.03;;
17524;SDS011;40431;52.198;9.902;2023-11-21T07:34:08;10.43;;;9.47;;
17524;SDS011;40431;52.198;9.902;2023-11-21T07:36:34;6.70;;;6.10;;
17524;SDS011;40431;52.198;9.902;2023-11-21T07:39:02;5.70;;;5.30;;
17524;SDS011;40431;52.198;9.902;2023-11-21T07:41:28;6.07;;;5.67;;
17524;SDS011;40431;52.198;9.902;2023-11-21T07:43:55;5.37;;;5.00;;
17524;SDS011;40431;52.198;9.902;2023-11-21T07:46:21;6.13;;;5.53;;
17524;SDS011;40431;52.198;9.902;2023-11-21T07:48:50;6.23;;;5.73;;
17524;SDS011;40431;52.198;9.902;2023-11-21T07:51:17;7.33;;;6.60;;
17524;SDS011;40431;52.198;9.902;2023-11-21T07:53:43;7.37;;;6.83;;
17524;SDS011;40431;52.198;9.902;2023-11-21T07:56:10;6.80;;;6.30;;
17524;SDS011;40431;52.198;9.902;2023-11-21T07:58:38;6.90;;;6.40;;
17524;SDS011;40431;52.198;9.902;2023-11-21T08:01:04;6.90;;;6.37;;
17524;SDS011;40431;52.198;9.902;2023-11-21T08:03:32;6.40;;;5.90;;
17524;SDS011;40431;52.198;9.902;2023-11-21T08:05:59;6.50;;;6.03;;
17524;SDS011;40431;52.198;9.902;2023-11-21T08:08:28;7.20;;;6.60;;
17524;SDS011;40431;52.198;9.902;2023-11-21T08:10:54;7.63;;;7.10;;
17524;SDS011;40431;52.198;9.902;2023-11-21T08:13:22;7.83;;;7.23;;
17524;SDS011;40431;52.198;9.902;2023-11-21T08:15:49;8.10;;;7.50;;
17524;SDS011;40431;52.198;9.902;2023-11-21T08:18:15;7.37;;;6.87;;
17524;SDS011;40431;52.198;9.902;2023-11-21T08:20:42;8.63;;;7.93;;
17524;SDS011;40431;52.198;9.902;2023-11-21T08:23:14;8.00;;;7.40;;
17524;SDS011;40431;52.198;9.902;2023-11-21T08:25:41;8.17;;;7.47;;
17524;SDS011;40431;52.198;9.902;2023-11-21T08:28:08;8.03;;;7.43;;
17524;SDS011;40431;52.198;9.902;2023-11-21T08:30:35;9.47;;;8.67;;
17524;SDS011;40431;52.198;9.902;2023-11-21T08:33:01;8.47;;;7.87;;
17524;SDS011;40431;52.198;9.902;2023-11-21T08:35:28;8.40;;;7.70;;
17524;SDS011;40431;52.198;9.902;2023-11-21T08:37:55;8.93;;;8.27;;
17524;SDS011;40431;52.198;9.902;2023-11-21T08:40:23;9.73;;;9.03;;
17524;SDS011;40431;52.198;9.902;2023-11-21T08:42:50;11.70;;;10.60;;
17524;SDS011;40431;52.198;9.902;2023-11-21T08:45:17;10.23;;;9.43;;
17524;SDS011;40431;52.198;9.902;2023-11-21T08:47:45;10.67;;;9.77;;
17524;SDS011;40431;52.198;9.902;2023-11-21T08:50:11;11.43;;;10.43;;
17524;SDS011;40431;52.198;9.902;2023-11-21T08:52:38;14.83;;;13.63;;
17524;SDS011;40431;52.198;9.902;2023-11-21T08:55:05;16.00;;;14.60;;
17524;SDS011;40431;52.198;9.902;2023-11-21T08:57:35;17.43;;;15.60;;
17524;SDS011;40431;52.198;9.902;2023-11-21T09:00:01;18.07;;;16.23;;
17524;SDS011;40431;52.198;9.902;2023-11-21T09:02:30;16.73;;;15.43;;
17524;SDS011;40431;52.198;9.902;2023-11-21T09:04:56;18.57;;;15.47;;
17524;SDS011;40431;52.198;9.902;2023-11-21T09:07:24;18.17;;;16.50;;
17524;SDS011;40431;52.198;9.902;2023-11-21T09:09:50;18.17;;;16.43;;
17524;SDS011;40431;52.198;9.902;2023-11-21T09:12:17;15.80;;;14.50;;
17524;SDS011;40431;52.198;9.902;2023-11-21T09:14:45;14.97;;;13.77;;
17524;SDS011;40431;52.198;9.902;2023-11-21T09:17:12;14.80;;;13.60;;
17524;SDS011;40431;52.198;9.902;2023-11-21T09:19:39;16.50;;;14.87;;
17524;SDS011;40431;52.198;9.902;2023-11-21T09:22:06;15.90;;;14.40;;
17524;SDS011;40431;52.198;9.902;2023-11-21T09:24:33;15.50;;;14.07;;
17524;SDS011;40431;52.198;9.902;2023-11-21T09:27:00;18.00;;;16.40;;
17524;SDS011;40431;52.198;9.902;2023-11-21T09:29:26;18.80;;;17.10;;
17524;SDS011;40431;52.198;9.902;2023-11-21T09:31:55;25.27;;;18.27;;
17524;SDS011;40431;52.198;9.902;2023-11-21T09:34:24;19.80;;;17.87;;
17524;SDS011;40431;52.198;9.902;2023-11-21T09:36:51;18.87;;;16.90;;
17524;SDS011;40431;52.198;9.902;2023-11-21T09:39:18;18.30;;;16.57;;
17524;SDS011;40431;52.198;9.902;2023-11-21T09:41:46;17.37;;;15.83;;
17524;SDS011;40431;52.198;9.902;2023-11-21T09:44:17;17.43;;;16.00;;
17524;SDS011;40431;52.198;9.902;2023-11-21T09:46:44;17.30;;;15.90;;
17524;SDS011;40431;52.198;9.902;2023-11-21T09:49:15;16.40;;;14.97;;
17524;SDS011;40431;52.198;9.902;2023-11-21T09:51:44;17.03;;;15.53;;
17524;SDS011;40431;52.198;9.902;2023-11-21T09:54:13;15.60;;;14.30;;
17524;SDS011;40431;52.198;9.902;2023-11-21T09:56:42;15.23;;;14.00;;
17524;SDS011;40431;52.198;9.902;2023-11-21T09:59:10;14.17;;;12.83;;
17524;SDS011;40431;52.198;9.902;2023-11-21T10:01:40;13.50;;;12.30;;
17524;SDS011;40431;52.198;9.902;2023-11-21T10:04:08;12.60;;;11.60;;
17524;SDS011;40431;52.198;9.902;2023-11-21T10:06:38;14.07;;;12.97;;
17524;SDS011;40431;52.198;9.902;2023-11-21T10:09:05;13.57;;;12.47;;
17524;SDS011;40431;52.198;9.902;2023-11-21T10:11:36;13.07;;;11.87;;
17524;SDS011;40431;52.198;9.902;2023-11-21T10:14:06;12.43;;;11.43;;
17524;SDS011;40431;52.198;9.902;2023-11-21T10:16:37;13.00;;;12.00;;
17524;SDS011;40431;52.198;9.902;2023-11-21T10:19:04;11.43;;;10.57;;
17524;SDS011;40431;52.198;9.902;2023-11-21T10:21:32;11.33;;;10.43;;
17524;SDS011;40431;52.198;9.902;2023-11-21T10:24:00;10.30;;;9.40;;
17524;SDS011;40431;52.198;9.902;2023-11-21T10:26:27;9.43;;;8.73;;
17524;SDS011;40431;52.198;9.902;2023-11-21T10:28:57;9.20;;;8.30;;
17524;SDS011;40431;52.198;9.902;2023-11-21T10:31:24;9.53;;;8.83;;
17524;SDS011;40431;52.198;9.902;2023-11-21T10:33:52;9.87;;;9.17;;
17524;SDS011;40431;52.198;9.902;2023-11-21T10:36:25;10.17;;;9.37;;
17524;SDS011;40431;52.198;9.902;2023-11-21T10:39:03;9.57;;;8.87;;
17524;SDS011;40431;52.198;9.902;2023-11-21T10:41:29;9.87;;;9.17;;
17524;SDS011;40431;52.198;9.902;2023-11-21T10:43:56;9.63;;;8.93;;
17524;SDS011;40431;52.198;9.902;2023-11-21T10:46:23;9.47;;;8.67;;
17524;SDS011;40431;52.198;9.902;2023-11-21T10:48:51;9.37;;;8.67;;
17524;SDS011;40431;52.198;9.902;2023-11-21T10:51:20;8.83;;;8.03;;
17524;SDS011;40431;52.198;9.902;2023-11-21T10:53:46;8.60;;;8.00;;
17524;SDS011;40431;52.198;9.902;2023-11-21T10:56:17;9.27;;;8.57;;
17524;SDS011;40431;52.198;9.902;2023-11-21T10:58:46;9.23;;;8.43;;
17524;SDS011;40431;52.198;9.902;2023-11-21T11:01:14;9.70;;;9.00;;
17524;SDS011;40431;52.198;9.902;2023-11-21T11:03:46;9.30;;;8.50;;
17524;SDS011;40431;52.198;9.902;2023-11-21T11:06:13;8.53;;;7.93;;
17524;SDS011;40431;52.198;9.902;2023-11-21T11:08:40;9.47;;;8.77;;
17524;SDS011;40431;52.198;9.902;2023-11-21T11:11:07;9.53;;;8.87;;
17524;SDS011;40431;52.198;9.902;2023-11-21T11:13:36;9.73;;;8.97;;
17524;SDS011;40431;52.198;9.902;2023-11-21T11:16:03;9.00;;;8.20;;
17524;SDS011;40431;52.198;9.902;2023-11-21T11:18:33;7.67;;;7.17;;
17524;SDS011;40431;52.198;9.902;2023-11-21T11:21:01;8.37;;;7.77;;
17524;SDS011;40431;52.198;9.902;2023-11-21T11:23:41;8.43;;;7.50;;
17524;SDS011;40431;52.198;9.902;2023-11-21T11:26:18;7.97;;;7.47;;
17524;SDS011;40431;52.198;9.902;2023-11-21T11:28:57;7.60;;;7.10;;
17524;SDS011;40431;52.198;9.902;2023-11-21T11:31:33;7.90;;;7.33;;
17524;SDS011;40431;52.198;9.902;2023-11-21T11:34:08;6.93;;;6.43;;
17524;SDS011;40431;52.198;9.902;2023-11-21T11:36:44;7.83;;;7.33;;
17524;SDS011;40431;52.198;9.902;2023-11-21T11:41:57;7.40;;;6.90;;
17524;SDS011;40431;52.198;9.902;2023-11-21T11:47:20;6.80;;;6.30;;
17524;SDS011;40431;52.198;9.902;2023-11-21T11:49:55;7.73;;;7.03;;
17524;SDS011;40431;52.198;9.902;2023-11-21T11:52:32;8.50;;;7.80;;
17524;SDS011;40431;52.198;9.902;2023-11-21T11:55:03;8.90;;;8.00;;
17524;SDS011;40431;52.198;9.902;2023-11-21T11:57:32;7.90;;;7.30;;
17524;SDS011;40431;52.198;9.902;2023-11-21T12:00:08;7.70;;;7.10;;
17524;SDS011;40431;52.198;9.902;2023-11-21T12:02:41;7.73;;;7.13;;
17524;SDS011;40431;52.198;9.902;2023-11-21T12:05:09;8.40;;;7.80;;
17524;SDS011;40431;52.198;9.902;2023-11-21T12:07:42;8.90;;;8.30;;
17524;SDS011;40431;52.198;9.902;2023-11-21T12:10:11;8.00;;;7.50;;
17524;SDS011;40431;52.198;9.902;2023-11-21T12:12:41;8.87;;;8.27;;
17524;SDS011;40431;52.198;9.902;2023-11-21T12:15:10;8.50;;;7.90;;
17524;SDS011;40431;52.198;9.902;2023-11-21T12:17:37;8.90;;;8.30;;
17524;SDS011;40431;52.198;9.902;2023-11-21T12:20:04;9.67;;;8.87;;
17524;SDS011;40431;52.198;9.902;2023-11-21T12:22:39;9.30;;;8.50;;
17524;SDS011;40431;52.198;9.902;2023-11-21T12:25:09;8.00;;;7.50;;
17524;SDS011;40431;52.198;9.902;2023-11-21T12:27:40;7.53;;;6.93;;
17524;SDS011;40431;52.198;9.902;2023-11-21T12:30:08;7.77;;;7.27;;
17524;SDS011;40431;52.198;9.902;2023-11-21T12:32:39;7.40;;;6.80;;
17524;SDS011;40431;52.198;9.902;2023-11-21T12:35:07;8.40;;;7.73;;
17524;SDS011;40431;52.198;9.902;2023-11-21T12:37:34;7.23;;;6.63;;
17524;SDS011;40431;52.198;9.902;2023-11-21T12:40:03;7.83;;;7.17;;
17524;SDS011;40431;52.198;9.902;2023-11-21T12:42:31;7.43;;;6.93;;
17524;SDS011;40431;52.198;9.902;2023-11-21T12:45:08;8.07;;;7.37;;
17524;SDS011;40431;52.198;9.902;2023-11-21T12:47:40;7.30;;;6.80;;
17524;SDS011;40431;52.198;9.902;2023-11-21T12:50:08;7.50;;;7.10;;
17524;SDS011;40431;52.198;9.902;2023-11-21T12:52:39;6.73;;;6.27;;
17524;SDS011;40431;52.198;9.902;2023-11-21T12:55:09;7.80;;;7.30;;
17524;SDS011;40431;52.198;9.902;2023-11-21T12:57:40;7.53;;;7.00;;
17524;SDS011;40431;52.198;9.902;2023-11-21T13:00:08;7.00;;;6.60;;
17524;SDS011;40431;52.198;9.902;2023-11-21T13:02:53;7.40;;;6.80;;
17524;SDS011;40431;52.198;9.902;2023-11-21T13:05:28;7.10;;;6.67;;
17524;SDS011;40431;52.198;9.902;2023-11-21T13:07:56;7.87;;;7.13;;
17524;SDS011;40431;52.198;9.902;2023-11-21T13:10:23;7.57;;;7.03;;
17524;SDS011;40431;52.198;9.902;2023-11-21T13:12:54;8.90;;;6.80;;
17524;SDS011;40431;52.198;9.902;2023-11-21T13:15:23;6.83;;;6.40;;
17524;SDS011;40431;52.198;9.902;2023-11-21T13:17:50;7.90;;;7.30;;
17524;SDS011;40431;52.198;9.902;2023-11-21T13:20:17;6.63;;;6.13;;
17524;SDS011;40431;52.198;9.902;2023-11-21T13:22:48;5.50;;;5.10;;
17524;SDS011;40431;52.198;9.902;2023-11-21T13:25:16;6.37;;;5.87;;
17524;SDS011;40431;52.198;9.902;2023-11-21T13:27:44;5.63;;;5.23;;
17524;SDS011;40431;52.198;9.902;2023-11-21T13:30:12;4.93;;;4.63;;
17524;SDS011;40431;52.198;9.902;2023-11-21T13:32:41;5.97;;;5.57;;
17524;SDS011;40431;52.198;9.902;2023-11-21T13:35:08;4.83;;;4.53;;
17524;SDS011;40431;52.198;9.902;2023-11-21T13:37:48;5.03;;;4.73;;
17524;SDS011;40431;52.198;9.902;2023-11-21T13:40:17;5.30;;;5.00;;
17524;SDS011;40431;52.198;9.902;2023-11-21T13:42:47;5.97;;;5.57;;
17524;SDS011;40431;52.198;9.902;2023-11-21T13:45:18;5.50;;;5.10;;
17524;SDS011;40431;52.198;9.902;2023-11-21T13:47:45;5.53;;;5.13;;
17524;SDS011;40431;52.198;9.902;2023-11-21T13:50:12;5.80;;;5.50;;
17524;SDS011;40431;52.198;9.902;2023-11-21T13:52:42;6.50;;;6.10;;
17524;SDS011;40431;52.198;9.902;2023-11-21T13:55:11;6.60;;;5.90;;
17524;SDS011;40431;52.198;9.902;2023-11-21T13:57:40;6.23;;;5.83;;
17524;SDS011;40431;52.198;9.902;2023-11-21T14:00:10;6.30;;;5.90;;
17524;SDS011;40431;52.198;9.902;2023-11-21T14:02:57;6.57;;;6.07;;
17524;SDS011;40431;52.198;9.902;2023-11-21T14:05:25;6.70;;;6.13;;
17524;SDS011;40431;52.198;9.902;2023-11-21T14:07:54;6.23;;;5.83;;
17524;SDS011;40431;52.198;9.902;2023-11-21T14:10:27;7.10;;;6.60;;
17524;SDS011;40431;52.198;9.902;2023-11-21T14:13:02;7.43;;;6.83;;
17524;SDS011;40431;52.198;9.902;2023-11-21T14:15:29;7.87;;;7.17;;
17524;SDS011;40431;52.198;9.902;2023-11-21T14:17:58;6.70;;;6.00;;
17524;SDS011;40431;52.198;9.902;2023-11-21T14:20:25;5.63;;;5.33;;
17524;SDS011;40431;52.198;9.902;2023-11-21T14:22:51;6.30;;;5.80;;
17524;SDS011;40431;52.198;9.902;2023-11-21T14:25:18;6.47;;;6.07;;
17524;SDS011;40431;52.198;9.902;2023-11-21T14:27:45;5.97;;;5.57;;
17524;SDS011;40431;52.198;9.902;2023-11-21T14:30:12;6.73;;;6.30;;
17524;SDS011;40431;52.198;9.902;2023-11-21T14:32:40;6.70;;;6.10;;
17524;SDS011;40431;52.198;9.902;2023-11-21T14:35:07;5.93;;;5.57;;
17524;SDS011;40431;52.198;9.902;2023-11-21T14:37:34;6.40;;;6.00;;
17524;SDS011;40431;52.198;9.902;2023-11-21T14:40:01;6.13;;;5.67;;